Greater Kankakee Airport
KIKK : rendu visible

Aérodrome :











RETROUVEZ-NOUS SUR...

 
LOGIN :

S'inscrire | Disclaimer

   EN    FR    IT 

 









Légende :    VFR   VFR Marginal   IFR   IFR Intensif   IFR Très Intensif
Visi : 
Plafond : 
>= 8 km
>= 3000ft
5 à 8 km
1000 à 3000 ft
1500m à 5 km
500 à 1000 ft
800 à 1500m
200 à 500 ft
< 800m
< 200 ft
Symboles :   Orages  Brouillard  Fortes neiges  Fortes précipitations  Vent > 20 kt






- Altitude de l'aérodrome : 630 ft


KIKK - Greater Kankakee

DERNIER METAR :
  • 200235Z AUTO 28012KT 10SM SCT038 M11/M14 A3049 RMK AO2 T11101137

METARs EXPIRÉS :
  • 200215Z AUTO 28011KT 10SM SCT038 M11/M14 A3049 RMK AO2 T11081136
  • 200155Z AUTO 28011KT 10SM CLR M11/M14 A3048 RMK AO2 T11091137
  • 200135Z AUTO 29012KT 10SM SCT050 M11/M14 A3048 RMK AO2 T11081136
  • 200115Z AUTO 29013KT 10SM SCT042 BKN050 M11/M14 A3048 RMK AO2 T11071139
  • 200055Z AUTO 28011KT 10SM SCT050 M11/M14 A3047 RMK AO2 T11071138
  • 200035Z AUTO 28017KT 10SM BKN050 M11/M14 A3047 RMK AO2 T11061138
  • 200015Z AUTO 29012G17KT 10SM SCT048 M10/M14 A3048 RMK AO2 T11051136
  • 192355Z AUTO 28011G17KT 10SM UP SCT017 M10/M14 A3047 RMK AO2 T11051136 11098 21120

TAF N/A



MET'MAP, la Météo Aéronautique d'un coup d'oeil ! - Copyright ORBIFLY Décembre 2007 - Disclaimer

ORBIFLY MET'MAP TEAM :

Programmation & Développement : Alexandra Zaïnal
Sur une idée originale de : Baudouin d'Aumeries
Assistance à la programmation : Marc-Olivier Méhu
Soutien technique & logistique : Manuel Goepfert

Contact : metmap@orbifly.com




SOURCES & CREDITS :

   NOAA       Earth
Advisory